Anderson Springs, California
Current Conditions -  °F | °C
As of 10:53 AM on Thursday 30 Oct 2014 (Local Time) from KSTS Reporting Station
Broken Clouds Broken Clouds  
Wind Chill: 66°   Ceiling: 25000
Heat Index: 66°   Visibility: 10mi
Dew Point: 54°   Wind: 3mph
Humidity: 65%   Direction: 220°SW
Pressure: 29.91"   Gusts: NA
Location:  38.7763°N, 122.598°W
Report Text: KSTS 301753Z 22003KT 10SM BKN250 19/12 A2991 RMK AO2 SLP124 6//// T01890122 10194 20106 58005
Loading
Personal Weather Stations






























Interactive Weather Map
Tropical Storm Tracking
New forecast layout! Learn more

10-Day Weather Forecast

Advertisements
Track Severe Weather on mobile